Aeroporto :
LOGIN :

Iscrizione | Disclaimer

   EN    FR    IT 

 










Sommario :    VFR   VFR Marginale   IFR   IFR Intensivo   IFR Molto Intensivo
Visibilità : 
Base nubi : 
>= 8 km
>= 3000ft
5 / 8 km
1000 / 3000 ft
1500m / 5 km
500 / 1000 ft
800 / 1500m
200 / 500 ft
< 800m
< 200 ft
Simboli :   Temporali  Nebbia  Neve Forte  Precipitazioni Forti  Vento > 20 kt
SIGMETs :   Varie  Temporali  Ghiacco  Turbolenza  Onda orograficha  Ceneri Vulcaniche






- Altitudine del aeroporto : 1071 ft
- Codice IATA : LWO


UKLL - L'viv

ULTIMO METAR :
  • 220730Z 14008MPS 9999 OVC009 M01/M03 Q1024 R13/D NOSIG

METARs OBSOLETI :
  • 220700Z 14008MPS 9999 OVC009 M01/M03 Q1024 R13/D NOSIG
  • 220630Z 14009MPS 9999 OVC008 M01/M03 Q1024 R13/D NOSIG
  • 220600Z 14007MPS 9999 OVC008 M01/M03 Q1024 R13/D NOSIG
  • 220530Z 14009MPS 9999 OVC008 M01/M03 Q1024 R13/D TEMPO 14009G15MPS
  • 220500Z 13008MPS 9999 OVC007 M01/M03 Q1024 R13/D TEMPO 14009G15MPS

TAF TAF UKLL
Valido dal 22 a 06 ore il 23 a 06 ore UTC


220513Z 2206/2306 13007G12MPS 5000 BR SCT005 BKN007 TX01/2212Z TNM03/2303Z
TEMPO 2206/2209 14009G14MPS 2100 BR BKN004
BECMG 2209/2210 9999 NSW BKN010
TEMPO 2210/2306 14009G14MPS 2100 BR SCT004 BKN007



MetMap, La meteo Aeronautica in un colpo d'occhio ! - Copyright ORBIFLY Dicembre 2007 - Disclaimer

ORBIFLY MET'MAP TEAM :

Programmazione e sviluppo : Alexandra Zaïnal
Concezione e sviluppo : Baudouin d'Aumeries
Co-Programmazione e sviluppo : Marc-Olivier Méhu
Supporto tecnico e logistico : Manuel Goepfert
Aiuto per la traduzione : Arnaldo La Scala

Contatto : metmap@orbifly.com




FONTI E CREDITI :

   NOAA